sensor_id;sensor_type;location;lat;lon;timestamp;P1;durP1;ratioP1;P2;durP2;ratioP2
22863;SDS011;11599;49.882;8.680;2022-11-20T00:08:22;32.70;;;13.13;;
22863;SDS011;11599;49.882;8.680;2022-11-20T00:18:43;30.17;;;12.33;;
22863;SDS011;11599;49.882;8.680;2022-11-20T00:29:08;29.50;;;12.50;;
22863;SDS011;11599;49.882;8.680;2022-11-20T00:39:30;31.20;;;13.70;;
22863;SDS011;11599;49.882;8.680;2022-11-20T00:49:53;30.63;;;13.00;;
22863;SDS011;11599;49.882;8.680;2022-11-20T01:00:14;29.93;;;12.67;;
22863;SDS011;11599;49.882;8.680;2022-11-20T01:10:37;28.93;;;12.23;;
22863;SDS011;11599;49.882;8.680;2022-11-20T01:21:03;30.30;;;12.03;;
22863;SDS011;11599;49.882;8.680;2022-11-20T01:31:27;35.20;;;13.20;;
22863;SDS011;11599;49.882;8.680;2022-11-20T01:41:49;27.93;;;11.77;;
22863;SDS011;11599;49.882;8.680;2022-11-20T01:52:30;31.80;;;13.33;;
22863;SDS011;11599;49.882;8.680;2022-11-20T02:02:56;26.80;;;11.50;;
22863;SDS011;11599;49.882;8.680;2022-11-20T02:13:19;24.47;;;10.70;;
22863;SDS011;11599;49.882;8.680;2022-11-20T02:24:03;25.40;;;10.73;;
22863;SDS011;11599;49.882;8.680;2022-11-20T02:34:26;28.53;;;11.27;;
22863;SDS011;11599;49.882;8.680;2022-11-20T02:44:48;27.50;;;12.23;;
22863;SDS011;11599;49.882;8.680;2022-11-20T02:55:10;27.17;;;10.70;;
22863;SDS011;11599;49.882;8.680;2022-11-20T03:05:33;22.60;;;9.70;;
22863;SDS011;11599;49.882;8.680;2022-11-20T03:15:54;23.40;;;10.70;;
22863;SDS011;11599;49.882;8.680;2022-11-20T03:26:18;26.90;;;11.70;;
22863;SDS011;11599;49.882;8.680;2022-11-20T03:36:40;23.53;;;9.77;;
22863;SDS011;11599;49.882;8.680;2022-11-20T03:47:03;19.50;;;9.10;;
22863;SDS011;11599;49.882;8.680;2022-11-20T03:57:25;23.37;;;9.33;;
22863;SDS011;11599;49.882;8.680;2022-11-20T04:07:50;21.30;;;10.40;;
22863;SDS011;11599;49.882;8.680;2022-11-20T04:18:14;23.70;;;9.40;;
22863;SDS011;11599;49.882;8.680;2022-11-20T04:28:37;23.60;;;9.53;;
22863;SDS011;11599;49.882;8.680;2022-11-20T04:39:00;22.07;;;9.10;;
22863;SDS011;11599;49.882;8.680;2022-11-20T04:49:23;24.73;;;9.90;;
22863;SDS011;11599;49.882;8.680;2022-11-20T04:59:45;27.77;;;10.53;;
22863;SDS011;11599;49.882;8.680;2022-11-20T05:10:08;26.37;;;10.77;;
22863;SDS011;11599;49.882;8.680;2022-11-20T05:20:29;25.90;;;10.37;;
22863;SDS011;11599;49.882;8.680;2022-11-20T05:30:52;25.07;;;9.93;;
22863;SDS011;11599;49.882;8.680;2022-11-20T05:41:15;29.40;;;10.93;;
22863;SDS011;11599;49.882;8.680;2022-11-20T05:51:38;27.17;;;11.10;;
22863;SDS011;11599;49.882;8.680;2022-11-20T06:01:59;25.20;;;10.60;;
22863;SDS011;11599;49.882;8.680;2022-11-20T06:12:22;36.27;;;12.50;;
22863;SDS011;11599;49.882;8.680;2022-11-20T06:22:43;29.60;;;11.10;;
22863;SDS011;11599;49.882;8.680;2022-11-20T06:33:06;24.53;;;10.73;;
22863;SDS011;11599;49.882;8.680;2022-11-20T06:43:28;29.03;;;11.90;;
22863;SDS011;11599;49.882;8.680;2022-11-20T06:53:51;23.13;;;9.30;;
22863;SDS011;11599;49.882;8.680;2022-11-20T07:04:12;30.57;;;11.53;;
22863;SDS011;11599;49.882;8.680;2022-11-20T07:14:35;28.73;;;11.40;;
22863;SDS011;11599;49.882;8.680;2022-11-20T07:24:57;30.07;;;11.40;;
22863;SDS011;11599;49.882;8.680;2022-11-20T07:35:19;25.93;;;10.90;;
22863;SDS011;11599;49.882;8.680;2022-11-20T07:45:41;29.93;;;11.63;;
22863;SDS011;11599;49.882;8.680;2022-11-20T07:56:04;29.20;;;12.63;;
22863;SDS011;11599;49.882;8.680;2022-11-20T08:06:26;29.37;;;12.33;;
22863;SDS011;11599;49.882;8.680;2022-11-20T08:16:49;27.53;;;10.97;;
22863;SDS011;11599;49.882;8.680;2022-11-20T08:27:10;33.53;;;11.80;;
22863;SDS011;11599;49.882;8.680;2022-11-20T08:37:33;29.10;;;11.23;;
22863;SDS011;11599;49.882;8.680;2022-11-20T08:47:59;28.80;;;11.23;;
22863;SDS011;11599;49.882;8.680;2022-11-20T08:58:22;33.80;;;13.63;;
22863;SDS011;11599;49.882;8.680;2022-11-20T09:08:46;33.43;;;14.90;;
22863;SDS011;11599;49.882;8.680;2022-11-20T09:19:09;19.80;;;9.37;;
22863;SDS011;11599;49.882;8.680;2022-11-20T09:29:31;33.57;;;14.87;;
22863;SDS011;11599;49.882;8.680;2022-11-20T09:39:54;20.13;;;9.07;;
22863;SDS011;11599;49.882;8.680;2022-11-20T09:50:23;22.87;;;9.73;;
22863;SDS011;11599;49.882;8.680;2022-11-20T10:00:48;21.40;;;9.00;;
22863;SDS011;11599;49.882;8.680;2022-11-20T10:11:12;21.03;;;8.87;;
22863;SDS011;11599;49.882;8.680;2022-11-20T10:21:38;20.80;;;9.67;;
22863;SDS011;11599;49.882;8.680;2022-11-20T10:32:04;21.97;;;9.60;;
22863;SDS011;11599;49.882;8.680;2022-11-20T10:42:31;23.60;;;9.87;;
22863;SDS011;11599;49.882;8.680;2022-11-20T10:52:59;19.43;;;9.07;;
22863;SDS011;11599;49.882;8.680;2022-11-20T11:03:26;20.80;;;9.87;;
22863;SDS011;11599;49.882;8.680;2022-11-20T11:13:48;23.93;;;9.90;;
22863;SDS011;11599;49.882;8.680;2022-11-20T11:24:15;26.37;;;12.07;;
22863;SDS011;11599;49.882;8.680;2022-11-20T11:34:40;17.63;;;8.63;;
22863;SDS011;11599;49.882;8.680;2022-11-20T11:45:05;20.67;;;9.37;;
22863;SDS011;11599;49.882;8.680;2022-11-20T11:55:29;19.00;;;9.00;;
22863;SDS011;11599;49.882;8.680;2022-11-20T12:05:55;20.43;;;8.63;;
22863;SDS011;11599;49.882;8.680;2022-11-20T12:16:19;19.10;;;8.93;;
22863;SDS011;11599;49.882;8.680;2022-11-20T12:26:45;20.20;;;8.47;;
22863;SDS011;11599;49.882;8.680;2022-11-20T12:37:11;21.23;;;8.87;;
22863;SDS011;11599;49.882;8.680;2022-11-20T12:47:54;18.67;;;8.07;;
22863;SDS011;11599;49.882;8.680;2022-11-20T12:58:19;18.63;;;8.23;;
22863;SDS011;11599;49.882;8.680;2022-11-20T13:08:44;17.50;;;8.10;;
22863;SDS011;11599;49.882;8.680;2022-11-20T13:19:09;17.23;;;7.93;;
22863;SDS011;11599;49.882;8.680;2022-11-20T13:29:35;21.57;;;9.43;;
22863;SDS011;11599;49.882;8.680;2022-11-20T13:40:19;18.27;;;7.73;;
22863;SDS011;11599;49.882;8.680;2022-11-20T13:50:46;19.47;;;8.43;;
22863;SDS011;11599;49.882;8.680;2022-11-20T14:01:10;21.63;;;9.87;;
22863;SDS011;11599;49.882;8.680;2022-11-20T14:11:33;23.03;;;9.77;;
22863;SDS011;11599;49.882;8.680;2022-11-20T14:22:05;18.90;;;9.00;;
22863;SDS011;11599;49.882;8.680;2022-11-20T14:32:29;27.37;;;11.13;;
22863;SDS011;11599;49.882;8.680;2022-11-20T14:42:51;16.17;;;7.63;;
22863;SDS011;11599;49.882;8.680;2022-11-20T14:53:21;16.80;;;8.03;;
22863;SDS011;11599;49.882;8.680;2022-11-20T15:03:43;17.30;;;7.50;;
22863;SDS011;11599;49.882;8.680;2022-11-20T15:14:06;14.47;;;6.67;;
22863;SDS011;11599;49.882;8.680;2022-11-20T15:24:28;15.47;;;6.93;;
22863;SDS011;11599;49.882;8.680;2022-11-20T15:34:50;17.93;;;7.20;;
22863;SDS011;11599;49.882;8.680;2022-11-20T15:45:12;30.93;;;13.50;;
22863;SDS011;11599;49.882;8.680;2022-11-20T15:55:36;19.37;;;8.13;;
22863;SDS011;11599;49.882;8.680;2022-11-20T16:05:57;15.67;;;6.23;;
22863;SDS011;11599;49.882;8.680;2022-11-20T16:16:25;14.10;;;5.33;;
22863;SDS011;11599;49.882;8.680;2022-11-20T16:26:48;17.87;;;6.30;;
22863;SDS011;11599;49.882;8.680;2022-11-20T16:37:11;9.33;;;4.37;;
22863;SDS011;11599;49.882;8.680;2022-11-20T16:47:35;11.23;;;4.07;;
22863;SDS011;11599;49.882;8.680;2022-11-20T16:58:04;15.70;;;6.80;;
22863;SDS011;11599;49.882;8.680;2022-11-20T17:08:28;10.33;;;5.17;;
22863;SDS011;11599;49.882;8.680;2022-11-20T17:18:54;7.80;;;2.77;;
22863;SDS011;11599;49.882;8.680;2022-11-20T17:29:17;7.50;;;2.50;;
22863;SDS011;11599;49.882;8.680;2022-11-20T17:39:50;8.00;;;3.03;;
22863;SDS011;11599;49.882;8.680;2022-11-20T17:50:16;5.27;;;1.70;;
22863;SDS011;11599;49.882;8.680;2022-11-20T18:00:44;3.40;;;1.80;;
22863;SDS011;11599;49.882;8.680;2022-11-20T18:11:11;56.30;;;22.47;;
22863;SDS011;11599;49.882;8.680;2022-11-20T18:21:35;9.53;;;3.07;;
22863;SDS011;11599;49.882;8.680;2022-11-20T18:31:59;3.60;;;1.73;;
22863;SDS011;11599;49.882;8.680;2022-11-20T18:42:22;8.53;;;3.53;;
22863;SDS011;11599;49.882;8.680;2022-11-20T18:53:01;4.83;;;2.07;;
22863;SDS011;11599;49.882;8.680;2022-11-20T19:03:24;7.73;;;3.40;;
22863;SDS011;11599;49.882;8.680;2022-11-20T19:13:47;8.73;;;3.73;;
22863;SDS011;11599;49.882;8.680;2022-11-20T19:24:15;6.77;;;4.17;;
22863;SDS011;11599;49.882;8.680;2022-11-20T19:34:37;8.93;;;2.80;;
22863;SDS011;11599;49.882;8.680;2022-11-20T19:45:03;6.57;;;3.27;;
22863;SDS011;11599;49.882;8.680;2022-11-20T19:55:25;3.90;;;2.33;;
22863;SDS011;11599;49.882;8.680;2022-11-20T20:05:48;21.10;;;5.87;;
22863;SDS011;11599;49.882;8.680;2022-11-20T20:16:10;5.03;;;2.00;;
22863;SDS011;11599;49.882;8.680;2022-11-20T20:26:33;5.03;;;2.13;;
22863;SDS011;11599;49.882;8.680;2022-11-20T20:37:03;4.77;;;1.87;;
22863;SDS011;11599;49.882;8.680;2022-11-20T20:47:30;2.60;;;1.60;;
22863;SDS011;11599;49.882;8.680;2022-11-20T20:57:52;8.27;;;1.80;;
22863;SDS011;11599;49.882;8.680;2022-11-20T21:08:34;4.03;;;1.57;;
22863;SDS011;11599;49.882;8.680;2022-11-20T21:19:09;2.43;;;1.33;;
22863;SDS011;11599;49.882;8.680;2022-11-20T21:29:57;4.40;;;1.20;;
22863;SDS011;11599;49.882;8.680;2022-11-20T21:40:26;2.53;;;1.47;;
22863;SDS011;11599;49.882;8.680;2022-11-20T21:50:50;2.47;;;1.17;;
22863;SDS011;11599;49.882;8.680;2022-11-20T22:01:13;2.70;;;1.50;;
22863;SDS011;11599;49.882;8.680;2022-11-20T22:11:36;3.10;;;1.20;;
22863;SDS011;11599;49.882;8.680;2022-11-20T22:21:57;3.60;;;1.40;;
22863;SDS011;11599;49.882;8.680;2022-11-20T22:32:23;3.13;;;1.00;;
22863;SDS011;11599;49.882;8.680;2022-11-20T22:42:44;6.50;;;1.40;;
22863;SDS011;11599;49.882;8.680;2022-11-20T22:53:07;5.37;;;1.30;;
22863;SDS011;11599;49.882;8.680;2022-11-20T23:03:29;3.03;;;1.53;;
22863;SDS011;11599;49.882;8.680;2022-11-20T23:13:52;6.03;;;1.80;;
22863;SDS011;11599;49.882;8.680;2022-11-20T23:24:17;5.93;;;1.57;;
22863;SDS011;11599;49.882;8.680;2022-11-20T23:34:40;3.77;;;1.70;;
22863;SDS011;11599;49.882;8.680;2022-11-20T23:45:01;10.07;;;1.97;;
22863;SDS011;11599;49.882;8.680;2022-11-20T23:55:24;5.20;;;1.90;;
